Main page
Satellite images 10-day forecastsClimateMarine weather Cyclones Lightning AirportsFAQ Newsletter About
Weather : Europe Africa North America South America Asia Australia-Oceania Others
Languages Contact

Rovaniemi, Finland

Rovaniemi Airport

latitude: 66-34N, longitude: 025-50E, elevation: 197 m


METAR: EFRO 021420Z AUTO 02008KT 9999 BKN036 10/02 Q1018
TAF: EFRO 021128Z 0212/0312 36007KT 9999 BKN035

Time: 17:44 (14:44 UTC)

Current weather observation

The report was made 24 minutes ago, at 14:20 UTC
Wind 8 kt from the North/Northeast
Temperature 10°C
Humidity 57%
Pressure 1018 hPa
Visibility 10 km or more
Broken clouds at a height of 3600 ft

Change units

Forecast

The report was made 3 hours and 16 minutes ago, at 11:28 UTC
Forecast valid from 02 at 12 UTC to 03 at 12 UTC
Wind 7 kt from the North
Visibility 10 km or more
Broken clouds at a height of 3500 ft
The information on this site is subject to a disclaimer
Weather : Europe Africa North America South America Asia Australia-Oceania Others
Satellite images 10-day forecastsClimateMarine weather Cyclones Lightning AirportsFAQ Languages Contact Newsletter About